Time,TemperatureF,DewpointF,PressureIn,WindDirection,WindDirectionDegrees,WindSpeedMPH,WindSpeedGustMPH,Humidity,HourlyPrecipIn,Conditions,Clouds,dailyrainin,SolarRadiationWatts/m^2,SoftwareType,DateUTC
2013-03-28 13:02:00,51.0,30.0,-100.00,SW,227,5.0,6.0,45,-99.99,,,0.00,254.000000,,2013-03-28 19:02:00,
2013-03-28 13:12:00,51.0,30.0,-100.00,SW,227,5.0,6.0,45,-99.99,,,0.00,254.000000,,2013-03-28 19:12:00,
2013-03-28 13:22:00,51.0,30.0,-100.00,SW,227,5.0,6.0,45,-99.99,,,0.00,254.000000,,2013-03-28 19:22:00,
2013-03-28 13:52:00,48.0,32.0,-100.00,SW,214,7.0,10.0,54,0.00,,,0.00,233.000000,,2013-03-28 19:52:00,
2013-03-28 14:02:00,48.0,32.0,-100.00,SW,214,7.0,10.0,54,0.00,,,0.00,233.000000,,2013-03-28 20:02:00,
2013-03-28 14:12:00,48.0,32.0,-100.00,SW,214,7.0,10.0,54,0.00,,,0.00,233.000000,,2013-03-28 20:12:00,
2013-03-28 14:22:00,48.0,32.0,-100.00,SW,214,7.0,10.0,54,0.00,,,0.00,233.000000,,2013-03-28 20:22:00,
2013-03-28 14:53:00,56.0,33.0,-100.00,SW,219,3.0,17.0,41,0.00,,,0.00,478.000000,,2013-03-28 20:53:00,
2013-03-28 15:02:00,56.0,33.0,-100.00,SW,219,3.0,17.0,41,0.00,,,0.00,478.000000,,2013-03-28 21:02:00,
2013-03-28 15:12:00,56.0,33.0,-100.00,SW,219,3.0,17.0,41,0.00,,,0.00,478.000000,,2013-03-28 21:12:00,
2013-03-28 15:22:00,56.0,33.0,-100.00,SW,219,3.0,17.0,41,0.00,,,0.00,478.000000,,2013-03-28 21:22:00,
2013-03-28 15:53:00,56.0,32.0,-100.00,ENE,71,2.0,13.0,40,0.00,,,0.00,627.000000,,2013-03-28 21:53:00,
2013-03-28 16:02:00,56.0,32.0,-100.00,ENE,71,2.0,13.0,40,0.00,,,0.00,627.000000,,2013-03-28 22:02:00,
2013-03-28 16:12:00,56.0,32.0,-100.00,ENE,71,2.0,13.0,40,0.00,,,0.00,627.000000,,2013-03-28 22:12:00,
2013-03-28 16:22:00,56.0,32.0,-100.00,ENE,71,2.0,13.0,40,0.00,,,0.00,627.000000,,2013-03-28 22:22:00,
2013-03-28 16:52:00,54.0,33.0,-100.00,WNW,303,2.0,16.0,44,0.00,,,0.00,461.000000,,2013-03-28 22:52:00,
2013-03-28 17:02:00,54.0,33.0,-100.00,WNW,303,2.0,16.0,44,0.00,,,0.00,461.000000,,2013-03-28 23:02:00,
2013-03-28 17:12:00,54.0,33.0,-100.00,WNW,303,2.0,16.0,44,0.00,,,0.00,461.000000,,2013-03-28 23:12:00,
2013-03-28 17:21:00,54.0,33.0,-100.00,WNW,303,2.0,16.0,44,0.00,,,0.00,461.000000,,2013-03-28 23:21:00,
2013-03-28 17:52:00,55.0,34.0,-100.00,SW,231,3.0,12.0,45,0.00,,,0.00,548.000000,,2013-03-28 23:52:00,
2013-03-28 18:02:00,55.0,34.0,-100.00,SW,231,3.0,12.0,45,0.00,,,0.00,548.000000,,2013-03-29 00:02:00,
2013-03-28 18:11:00,55.0,34.0,-100.00,SW,231,3.0,12.0,45,0.00,,,0.00,548.000000,,2013-03-29 00:11:00,
2013-03-28 18:22:00,55.0,34.0,-100.00,SW,231,3.0,12.0,45,0.00,,,0.00,548.000000,,2013-03-29 00:22:00,
2013-03-28 18:52:00,53.0,33.0,-100.00,NNE,32,6.0,17.0,46,0.00,,,-99.99,284.000000,,2013-03-29 00:52:00,
2013-03-28 19:02:00,53.0,33.0,-100.00,NNE,32,6.0,17.0,46,0.00,,,-99.99,284.000000,,2013-03-29 01:02:00,
2013-03-28 19:12:00,53.0,33.0,-100.00,NNE,32,6.0,17.0,46,0.00,,,-99.99,284.000000,,2013-03-29 01:12:00,
2013-03-28 19:22:00,53.0,33.0,-100.00,NNE,32,6.0,17.0,46,0.00,,,-99.99,284.000000,,2013-03-29 01:22:00,
2013-03-28 19:52:00,50.0,34.0,-100.00,ENE,59,0.0,10.0,54,0.00,,,-99.99,125.000000,,2013-03-29 01:52:00,
2013-03-28 20:02:00,50.0,34.0,-100.00,ENE,59,0.0,10.0,54,0.00,,,-99.99,125.000000,,2013-03-29 02:02:00,
2013-03-28 20:12:00,50.0,34.0,-100.00,ENE,59,0.0,10.0,54,0.00,,,-99.99,125.000000,,2013-03-29 02:12:00,
2013-03-28 20:21:00,50.0,34.0,-100.00,ENE,59,0.0,10.0,54,0.00,,,-99.99,125.000000,,2013-03-29 02:21:00,
2013-03-28 20:53:00,48.0,36.0,-100.00,ENE,67,0.0,12.0,62,0.00,,,-99.99,29.000000,,2013-03-29 02:53:00,
2013-03-28 21:02:00,48.0,36.0,-100.00,ENE,67,0.0,12.0,62,0.00,,,-99.99,29.000000,,2013-03-29 03:02:00,
2013-03-28 21:12:00,48.0,36.0,-100.00,ENE,67,0.0,12.0,62,0.00,,,-99.99,29.000000,,2013-03-29 03:12:00,
2013-03-28 21:21:00,48.0,36.0,-100.00,ENE,67,0.0,12.0,62,0.00,,,-99.99,29.000000,,2013-03-29 03:21:00,
2013-03-28 21:53:00,44.0,34.0,-100.00,SSE,168,0.0,3.0,69,0.00,,,-99.99,0.000000,,2013-03-29 03:53:00,
2013-03-28 22:02:00,44.0,34.0,-100.00,SSE,168,0.0,3.0,69,0.00,,,-99.99,0.000000,,2013-03-29 04:02:00,
2013-03-28 22:12:00,44.0,34.0,-100.00,SSE,168,0.0,3.0,69,0.00,,,-99.99,0.000000,,2013-03-29 04:12:00,
2013-03-28 22:22:00,44.0,34.0,-100.00,SSE,168,0.0,3.0,69,0.00,,,-99.99,0.000000,,2013-03-29 04:22:00,
2013-03-28 22:52:00,39.0,32.0,-100.00,South,171,0.0,5.0,76,0.00,,,-99.99,0.000000,,2013-03-29 04:52:00,
2013-03-28 23:02:00,39.0,32.0,-100.00,South,171,0.0,5.0,76,0.00,,,-99.99,0.000000,,2013-03-29 05:02:00,
2013-03-28 23:12:00,39.0,32.0,-100.00,South,171,0.0,5.0,76,0.00,,,-99.99,0.000000,,2013-03-29 05:12:00,
2013-03-28 23:22:00,39.0,32.0,-100.00,South,171,0.0,5.0,76,0.00,,,-99.99,0.000000,,2013-03-29 05:22:00,
2013-03-28 23:52:00,39.0,33.0,-100.00,SSW,211,0.0,4.0,79,0.00,,,-99.99,0.000000,,2013-03-29 05:52:00,